createdAt,value
2023-04-23T00:01:59.603Z,7.57
2023-04-23T00:04:29.017Z,7.52
2023-04-23T00:06:58.106Z,7.47
2023-04-23T00:09:30.215Z,7.45
2023-04-23T00:11:58.822Z,7.44
2023-04-23T00:14:26.935Z,7.42
2023-04-23T00:16:55.113Z,7.40
2023-04-23T00:19:23.433Z,7.37
2023-04-23T00:21:51.595Z,7.36
2023-04-23T00:24:20.444Z,7.34
2023-04-23T00:26:48.307Z,7.31
2023-04-23T00:29:16.095Z,7.30
2023-04-23T00:31:44.117Z,7.28
2023-04-23T00:34:12.601Z,7.27
2023-04-23T00:36:40.609Z,7.25
2023-04-23T00:39:08.609Z,7.24
2023-04-23T00:41:36.363Z,7.19
2023-04-23T00:44:04.757Z,7.10
2023-04-23T00:46:32.703Z,7.06
2023-04-23T00:49:01.637Z,7.01
2023-04-23T00:51:30.218Z,6.94
2023-04-23T00:53:58.342Z,6.89
2023-04-23T00:56:27.407Z,6.86
2023-04-23T00:58:55.446Z,6.85
2023-04-23T01:01:23.825Z,6.85
2023-04-23T01:03:53.780Z,6.85
2023-04-23T01:06:25.149Z,6.84
2023-04-23T01:08:53.175Z,6.84
2023-04-23T01:11:21.109Z,6.83
2023-04-23T01:13:48.982Z,6.80
2023-04-23T01:16:17.640Z,6.79
2023-04-23T01:18:46.034Z,6.77
2023-04-23T01:21:15.252Z,6.75
2023-04-23T01:23:43.375Z,6.74
2023-04-23T01:26:11.590Z,6.72
2023-04-23T01:28:39.603Z,6.66
2023-04-23T01:31:14.424Z,6.62
2023-04-23T01:33:43.269Z,6.60
2023-04-23T01:36:12.363Z,6.60
2023-04-23T01:38:41.002Z,6.58
2023-04-23T01:41:09.308Z,6.58
2023-04-23T01:43:38.240Z,6.51
2023-04-23T01:46:06.499Z,6.41
2023-04-23T01:48:35.232Z,6.36
2023-04-23T01:51:05.813Z,6.37
2023-04-23T01:53:33.590Z,6.35
2023-04-23T01:56:02.909Z,6.34
2023-04-23T01:58:31.134Z,6.34
2023-04-23T02:00:59.090Z,6.34
2023-04-23T02:03:32.077Z,6.34
2023-04-23T02:06:00.949Z,6.34
2023-04-23T02:08:28.754Z,6.32
2023-04-23T02:10:57.359Z,6.27
2023-04-23T02:13:25.867Z,6.23
2023-04-23T02:15:53.885Z,6.23
2023-04-23T02:18:21.759Z,6.25
2023-04-23T02:20:49.645Z,6.26
2023-04-23T02:23:17.526Z,6.27
2023-04-23T02:25:46.184Z,6.24
2023-04-23T02:28:14.748Z,6.17
2023-04-23T02:30:47.966Z,6.07
2023-04-23T02:33:16.150Z,6.05
2023-04-23T02:35:44.041Z,6.01
2023-04-23T02:38:11.818Z,5.95
2023-04-23T02:40:40.300Z,5.87
2023-04-23T02:43:08.772Z,5.83
2023-04-23T02:45:36.851Z,5.78
2023-04-23T02:48:04.917Z,5.74
2023-04-23T02:50:32.810Z,5.73
2023-04-23T02:53:00.730Z,5.74
2023-04-23T02:55:32.050Z,5.77
2023-04-23T02:58:00.650Z,5.78
2023-04-23T03:00:28.918Z,5.75
2023-04-23T03:02:57.391Z,5.73
2023-04-23T03:05:25.414Z,5.70
2023-04-23T03:07:54.025Z,5.72
2023-04-23T03:10:21.937Z,5.71
2023-04-23T03:12:50.047Z,5.69
2023-04-23T03:15:18.179Z,5.70
2023-04-23T03:17:46.068Z,5.72
2023-04-23T03:20:14.731Z,5.74
2023-04-23T03:22:42.591Z,5.76
2023-04-23T03:25:10.488Z,5.77
2023-04-23T03:27:40.742Z,5.78
2023-04-23T03:30:09.556Z,5.77
2023-04-23T03:32:37.404Z,5.77
2023-04-23T03:35:05.820Z,5.78
2023-04-23T03:37:33.630Z,5.76
2023-04-23T03:40:07.152Z,5.77
2023-04-23T03:42:35.983Z,5.74
2023-04-23T03:45:04.617Z,5.73
2023-04-23T03:47:32.488Z,5.75
2023-04-23T03:50:01.103Z,5.77
2023-04-23T03:52:36.877Z,5.78
2023-04-23T03:55:05.819Z,5.80
2023-04-23T03:57:34.072Z,5.81
2023-04-23T04:00:02.848Z,5.83
2023-04-23T04:02:31.116Z,5.80
2023-04-23T04:05:00.103Z,5.79
2023-04-23T04:07:28.812Z,5.83
2023-04-23T04:09:56.653Z,5.88
2023-04-23T04:12:24.522Z,5.93
2023-04-23T04:14:52.313Z,5.98
2023-04-23T04:17:20.813Z,6.00
2023-04-23T04:19:48.666Z,6.04
2023-04-23T04:22:16.837Z,6.10
2023-04-23T04:24:47.735Z,6.15
2023-04-23T04:27:15.933Z,6.23
2023-04-23T04:29:44.821Z,6.27
2023-04-23T04:32:13.888Z,6.26
2023-04-23T04:34:41.956Z,6.30
2023-04-23T04:37:11.548Z,6.35
2023-04-23T04:39:39.419Z,6.42
2023-04-23T04:42:08.056Z,6.48
2023-04-23T04:44:37.852Z,6.56
2023-04-23T04:47:08.240Z,6.67
2023-04-23T04:49:36.300Z,6.80
2023-04-23T04:52:04.165Z,6.95
2023-04-23T04:54:32.781Z,7.09
2023-04-23T04:57:02.430Z,7.22
2023-04-23T04:59:30.365Z,7.37
2023-04-23T05:01:58.972Z,7.51
2023-04-23T05:04:26.860Z,7.64
2023-04-23T05:06:54.942Z,7.77
2023-04-23T05:09:23.426Z,7.90
2023-04-23T05:11:51.994Z,8.02
2023-04-23T05:14:19.793Z,8.13
2023-04-23T05:16:47.652Z,8.24
2023-04-23T05:19:15.601Z,8.36
2023-04-23T05:21:43.822Z,8.47
2023-04-23T05:24:12.332Z,8.57
2023-04-23T05:26:40.533Z,8.68
2023-04-23T05:29:08.289Z,8.79
2023-04-23T05:31:36.478Z,8.89
2023-04-23T05:34:04.340Z,9.00
2023-04-23T05:36:32.356Z,9.10
2023-04-23T05:39:00.855Z,9.19
2023-04-23T05:41:28.803Z,9.28
2023-04-23T05:43:56.598Z,9.38
2023-04-23T05:46:24.609Z,9.47
2023-04-23T05:48:53.766Z,9.58
2023-04-23T05:51:22.317Z,9.68
2023-04-23T05:53:50.901Z,9.78
2023-04-23T05:56:18.782Z,9.88
2023-04-23T05:58:46.912Z,9.97
2023-04-23T06:01:14.818Z,10.07
2023-04-23T06:03:46.052Z,10.16
2023-04-23T06:06:14.419Z,10.27
2023-04-23T06:08:42.768Z,10.37
2023-04-23T06:11:10.561Z,10.47
2023-04-23T06:13:43.081Z,10.57
2023-04-23T06:16:11.618Z,10.67
2023-04-23T06:18:39.802Z,10.77
2023-04-23T06:21:08.824Z,10.87
2023-04-23T06:23:36.956Z,10.94
2023-04-23T06:26:05.638Z,11.02
2023-04-23T06:28:33.557Z,11.10
2023-04-23T06:31:02.771Z,11.18
2023-04-23T06:33:31.391Z,11.26
2023-04-23T06:35:59.232Z,11.35
2023-04-23T06:38:27.042Z,11.45
2023-04-23T06:41:00.368Z,11.53
2023-04-23T06:43:31.301Z,11.62
2023-04-23T06:45:59.189Z,11.71
2023-04-23T06:48:27.477Z,11.82
2023-04-23T06:50:55.528Z,11.91
2023-04-23T06:53:23.416Z,12.03
2023-04-23T06:55:51.640Z,12.13
2023-04-23T06:58:19.433Z,12.25
2023-04-23T07:00:47.361Z,12.37
2023-04-23T07:03:15.923Z,12.47
2023-04-23T07:05:43.876Z,12.60
2023-04-23T07:08:11.705Z,12.71
2023-04-23T07:10:39.553Z,12.80
2023-04-23T07:13:07.526Z,12.89
2023-04-23T07:15:35.750Z,12.98
2023-04-23T07:18:05.101Z,13.08
2023-04-23T07:20:33.295Z,13.16
2023-04-23T07:23:01.223Z,13.25
2023-04-23T07:25:28.974Z,13.34
2023-04-23T07:27:57.259Z,13.41
2023-04-23T07:30:26.561Z,13.49
2023-04-23T07:32:55.880Z,13.58
2023-04-23T07:35:23.836Z,13.67
2023-04-23T07:37:53.931Z,13.76
2023-04-23T07:40:22.598Z,13.84
2023-04-23T07:42:51.840Z,13.89
2023-04-23T07:45:20.132Z,13.95
2023-04-23T07:47:50.216Z,14.03
2023-04-23T07:50:18.008Z,14.11
2023-04-23T07:52:45.888Z,14.18
2023-04-23T07:55:13.680Z,14.26
2023-04-23T07:57:41.447Z,14.36
2023-04-23T08:00:11.379Z,14.45
2023-04-23T08:02:39.314Z,14.52
2023-04-23T08:05:08.370Z,14.59
2023-04-23T08:07:36.342Z,14.67
2023-04-23T08:10:06.238Z,14.75
2023-04-23T08:12:36.027Z,14.83
2023-04-23T08:15:04.921Z,14.89
2023-04-23T08:17:33.184Z,14.95
2023-04-23T08:20:01.490Z,14.97
2023-04-23T08:22:29.353Z,15.00
2023-04-23T08:24:57.164Z,15.03
2023-04-23T08:27:25.013Z,15.09
2023-04-23T08:29:52.790Z,15.19
2023-04-23T08:32:21.512Z,15.27
2023-04-23T08:34:49.377Z,15.34
2023-04-23T08:37:29.699Z,15.42
2023-04-23T08:39:58.525Z,15.49
2023-04-23T08:42:49.030Z,15.53
2023-04-23T08:45:18.260Z,15.59
2023-04-23T08:47:46.047Z,15.65
2023-04-23T08:50:20.205Z,15.69
2023-04-23T08:52:52.967Z,15.68
2023-04-23T08:55:22.856Z,15.66
2023-04-23T08:57:51.597Z,15.68
2023-04-23T09:00:21.596Z,15.70
2023-04-23T09:02:50.271Z,15.70
2023-04-23T09:05:18.579Z,15.74
2023-04-23T09:07:46.914Z,15.83
2023-04-23T09:10:18.402Z,15.94
2023-04-23T09:12:48.291Z,16.03
2023-04-23T09:15:17.148Z,16.08
2023-04-23T09:17:47.241Z,16.10
2023-04-23T09:20:15.632Z,16.16
2023-04-23T09:22:47.621Z,16.24
2023-04-23T09:25:18.306Z,16.32
2023-04-23T09:27:47.666Z,16.37
2023-04-23T09:30:16.836Z,16.39
2023-04-23T09:32:46.206Z,16.45
2023-04-23T09:35:22.284Z,16.54
2023-04-23T09:37:52.942Z,16.64
2023-04-23T09:40:24.022Z,16.73
2023-04-23T09:42:54.512Z,16.80
2023-04-23T09:45:25.770Z,16.87
2023-04-23T09:47:56.107Z,16.91
2023-04-23T09:50:35.446Z,16.92
2023-04-23T09:53:04.238Z,16.89
2023-04-23T09:55:43.039Z,16.91
2023-04-23T09:58:13.747Z,16.94
2023-04-23T10:00:42.828Z,16.98
2023-04-23T10:03:12.066Z,16.99
2023-04-23T10:08:14.557Z,17.03
2023-04-23T10:13:19.161Z,17.14
2023-04-23T10:15:48.802Z,17.18
2023-04-23T10:18:17.250Z,17.22
2023-04-23T10:20:45.596Z,17.28
2023-04-23T10:23:14.957Z,17.34
2023-04-23T10:25:42.867Z,17.39
2023-04-23T10:28:12.431Z,17.40
2023-04-23T10:30:42.844Z,17.37
2023-04-23T10:33:22.383Z,17.34
2023-04-23T10:35:58.152Z,17.34
2023-04-23T10:38:28.442Z,17.37
2023-04-23T10:40:58.882Z,17.40
2023-04-23T10:43:26.874Z,17.43
2023-04-23T10:45:54.635Z,17.44
2023-04-23T10:48:23.177Z,17.46
2023-04-23T10:51:17.449Z,17.47
2023-04-23T10:53:47.057Z,17.48
2023-04-23T10:56:16.343Z,17.50
2023-04-23T10:58:48.763Z,17.53
2023-04-23T11:01:18.112Z,17.62
2023-04-23T11:03:46.056Z,17.70
2023-04-23T11:06:20.306Z,17.74
2023-04-23T11:08:54.229Z,17.79
2023-04-23T11:11:40.378Z,17.82
2023-04-23T11:14:15.762Z,17.84
2023-04-23T11:16:43.825Z,17.88
2023-04-23T11:19:12.991Z,17.95
2023-04-23T11:22:01.187Z,18.03
2023-04-23T11:24:37.498Z,18.07
2023-04-23T11:27:07.432Z,18.09
2023-04-23T11:29:37.870Z,18.14
2023-04-23T11:32:10.741Z,18.21
2023-04-23T11:34:40.461Z,18.24
2023-04-23T11:37:13.677Z,18.27
2023-04-23T11:39:47.636Z,18.27
2023-04-23T11:42:17.621Z,18.23
2023-04-23T11:44:46.253Z,18.26
2023-04-23T11:47:19.209Z,18.37
2023-04-23T11:49:48.906Z,18.48
2023-04-23T11:52:17.475Z,18.59
2023-04-23T11:54:45.453Z,18.68
2023-04-23T11:57:14.637Z,18.74
2023-04-23T11:59:42.661Z,18.79
2023-04-23T12:02:10.826Z,18.84
2023-04-23T12:04:41.034Z,18.88
2023-04-23T12:07:19.633Z,18.91
2023-04-23T12:09:59.224Z,18.94
2023-04-23T12:12:34.663Z,18.97
2023-04-23T12:15:07.501Z,19.00
2023-04-23T12:17:36.177Z,19.01
2023-04-23T12:20:07.235Z,19.00
2023-04-23T12:22:35.034Z,19.01
2023-04-23T12:25:09.718Z,19.03
2023-04-23T12:27:42.674Z,19.04
2023-04-23T12:30:12.040Z,19.05
2023-04-23T12:32:41.405Z,19.05
2023-04-23T12:35:11.338Z,19.06
2023-04-23T12:37:39.165Z,19.08
2023-04-23T12:40:07.410Z,19.13
2023-04-23T12:42:36.453Z,19.20
2023-04-23T12:45:10.064Z,19.23
2023-04-23T12:47:38.001Z,19.25
2023-04-23T12:50:06.721Z,19.25
2023-04-23T12:52:34.566Z,19.24
2023-04-23T12:55:05.083Z,19.21
2023-04-23T12:57:33.473Z,19.15
2023-04-23T13:00:01.320Z,19.14
2023-04-23T13:02:29.476Z,19.15
2023-04-23T13:05:01.297Z,19.18
2023-04-23T13:07:29.332Z,19.18
2023-04-23T13:09:59.522Z,19.21
2023-04-23T13:12:27.994Z,19.22
2023-04-23T13:14:56.594Z,19.27
2023-04-23T13:17:26.549Z,19.35
2023-04-23T13:19:56.160Z,19.41
2023-04-23T13:22:28.700Z,19.45
2023-04-23T13:24:57.243Z,19.48
2023-04-23T13:27:27.369Z,19.48
2023-04-23T13:29:55.864Z,19.50
2023-04-23T13:32:32.075Z,19.49
2023-04-23T13:35:05.253Z,19.49
2023-04-23T13:37:33.883Z,19.50
2023-04-23T13:40:02.678Z,19.52
2023-04-23T13:42:30.495Z,19.52
2023-04-23T13:44:58.298Z,19.54
2023-04-23T13:47:30.577Z,19.55
2023-04-23T13:49:58.509Z,19.54
2023-04-23T13:52:27.192Z,19.54
2023-04-23T13:54:57.213Z,19.53
2023-04-23T13:57:25.357Z,19.51
2023-04-23T13:59:55.389Z,19.51
2023-04-23T14:02:24.203Z,19.51
2023-04-23T14:04:52.585Z,19.53
2023-04-23T14:07:21.346Z,19.55
2023-04-23T14:09:52.878Z,19.54
2023-04-23T14:12:21.073Z,19.52
2023-04-23T14:14:48.872Z,19.49
2023-04-23T14:17:16.670Z,19.49
2023-04-23T14:19:44.919Z,19.51
2023-04-23T14:22:13.552Z,19.51
2023-04-23T14:24:46.322Z,19.52
2023-04-23T14:27:14.083Z,19.54
2023-04-23T14:29:51.287Z,19.55
2023-04-23T14:32:19.619Z,19.54
2023-04-23T14:34:47.428Z,19.52
2023-04-23T14:37:17.237Z,19.49
2023-04-23T14:39:46.677Z,19.48
2023-04-23T14:42:14.593Z,19.48
2023-04-23T14:44:43.183Z,19.47
2023-04-23T14:47:11.971Z,19.46
2023-04-23T14:49:41.828Z,19.47
2023-04-23T14:52:10.642Z,19.49
2023-04-23T14:54:38.614Z,19.52
2023-04-23T14:57:07.041Z,19.52
2023-04-23T14:59:35.271Z,19.54
2023-04-23T15:02:03.497Z,19.55
2023-04-23T15:04:31.618Z,19.53
2023-04-23T15:06:59.538Z,19.51
2023-04-23T15:09:27.874Z,19.50
2023-04-23T15:11:56.250Z,19.49
2023-04-23T15:14:37.468Z,19.47
2023-04-23T15:17:05.236Z,19.43
2023-04-23T15:19:33.100Z,19.37
2023-04-23T15:22:01.367Z,19.30
2023-04-23T15:24:29.843Z,19.24
2023-04-23T15:26:59.445Z,19.22
2023-04-23T15:29:27.844Z,19.21
2023-04-23T15:31:58.474Z,19.22
2023-04-23T15:34:26.591Z,19.25
2023-04-23T15:36:55.418Z,19.32
2023-04-23T15:39:27.772Z,19.35
2023-04-23T15:41:57.316Z,19.35
2023-04-23T15:44:26.674Z,19.34
2023-04-23T15:47:01.314Z,19.30
2023-04-23T15:49:30.211Z,19.22
2023-04-23T15:51:59.121Z,19.13
2023-04-23T15:54:31.474Z,19.05
2023-04-23T15:57:03.862Z,18.97
2023-04-23T15:59:32.215Z,18.87
2023-04-23T16:02:00.325Z,18.78
2023-04-23T16:04:28.721Z,18.70
2023-04-23T16:07:02.976Z,18.61
2023-04-23T16:09:33.910Z,18.53
2023-04-23T16:12:02.654Z,18.53
2023-04-23T16:14:31.146Z,18.55
2023-04-23T16:16:59.156Z,18.60
2023-04-23T16:19:28.518Z,18.64
2023-04-23T16:21:56.508Z,18.66
2023-04-23T16:24:24.804Z,18.68
2023-04-23T16:26:52.597Z,18.71
2023-04-23T16:29:22.998Z,18.71
2023-04-23T16:31:51.248Z,18.68
2023-04-23T16:34:19.166Z,18.66
2023-04-23T16:36:47.439Z,18.63
2023-04-23T16:39:15.590Z,18.60
2023-04-23T16:41:44.253Z,18.57
2023-04-23T16:44:12.639Z,18.51
2023-04-23T16:46:42.595Z,18.47
2023-04-23T16:49:10.701Z,18.43
2023-04-23T16:51:39.357Z,18.39
2023-04-23T16:54:09.995Z,18.32
2023-04-23T16:56:38.578Z,18.27
2023-04-23T16:59:06.433Z,18.19
2023-04-23T17:01:34.389Z,18.12
2023-04-23T17:04:02.906Z,18.04
2023-04-23T17:06:32.473Z,17.96
2023-04-23T17:09:02.448Z,17.88
2023-04-23T17:11:31.671Z,17.79
2023-04-23T17:13:59.690Z,17.70
2023-04-23T17:16:27.937Z,17.60
2023-04-23T17:18:56.369Z,17.48
2023-04-23T17:21:24.802Z,17.36
2023-04-23T17:23:53.171Z,17.24
2023-04-23T17:26:21.543Z,17.12
2023-04-23T17:28:49.357Z,16.99
2023-04-23T17:31:18.220Z,16.86
2023-04-23T17:33:49.328Z,16.73
2023-04-23T17:36:17.695Z,16.58
2023-04-23T17:38:45.982Z,16.46
2023-04-23T17:41:14.378Z,16.34
2023-04-23T17:43:42.722Z,16.21
2023-04-23T17:46:10.620Z,16.08
2023-04-23T17:48:38.497Z,15.93
2023-04-23T17:51:06.745Z,15.81
2023-04-23T17:53:35.091Z,15.71
2023-04-23T17:56:03.458Z,15.62
2023-04-23T17:58:31.681Z,15.53
2023-04-23T18:00:59.643Z,15.45
2023-04-23T18:03:27.996Z,15.36
2023-04-23T18:05:56.115Z,15.26
2023-04-23T18:08:24.341Z,15.17
2023-04-23T18:10:52.695Z,15.07
2023-04-23T18:13:20.546Z,14.99
2023-04-23T18:15:50.142Z,14.91
2023-04-23T18:18:19.608Z,14.86
2023-04-23T18:20:47.694Z,14.82
2023-04-23T18:23:16.119Z,14.78
2023-04-23T18:25:44.681Z,14.76
2023-04-23T18:28:12.725Z,14.74
2023-04-23T18:30:40.724Z,14.71
2023-04-23T18:33:25.424Z,14.69
2023-04-23T18:35:59.451Z,14.67
2023-04-23T18:38:39.164Z,14.65
2023-04-23T18:41:06.958Z,14.62
2023-04-23T18:43:34.720Z,14.59
2023-04-23T18:46:03.935Z,14.56
2023-04-23T18:48:34.802Z,14.53
2023-04-23T18:51:33.370Z,14.50
2023-04-23T18:54:01.841Z,14.44
2023-04-23T18:56:33.975Z,14.38
2023-04-23T18:59:01.972Z,14.34
2023-04-23T19:01:46.146Z,14.29
2023-04-23T19:04:16.370Z,14.24
2023-04-23T19:06:44.842Z,14.21
2023-04-23T19:09:12.596Z,14.16
2023-04-23T19:11:40.614Z,14.10
2023-04-23T19:14:08.374Z,14.06
2023-04-23T19:16:36.351Z,14.01
2023-04-23T19:19:04.725Z,13.96
2023-04-23T19:21:32.585Z,13.94
2023-04-23T19:24:00.428Z,13.90
2023-04-23T19:26:28.320Z,13.86
2023-04-23T19:28:56.114Z,13.83
2023-04-23T19:31:24.128Z,13.80
2023-04-23T19:33:52.485Z,13.75
2023-04-23T19:36:21.061Z,13.69
2023-04-23T19:38:49.273Z,13.63
2023-04-23T19:41:17.079Z,13.57
2023-04-23T19:43:44.836Z,13.53
2023-04-23T19:46:12.757Z,13.48
2023-04-23T19:48:41.789Z,13.43
2023-04-23T19:51:10.166Z,13.38
2023-04-23T19:53:37.972Z,13.34
2023-04-23T19:56:08.716Z,13.30
2023-04-23T19:58:36.651Z,13.27
2023-04-23T20:01:04.922Z,13.24
2023-04-23T20:03:34.985Z,13.21
2023-04-23T20:06:02.890Z,13.17
2023-04-23T20:08:41.558Z,13.13
2023-04-23T20:11:13.472Z,13.09
2023-04-23T20:13:43.022Z,13.05
2023-04-23T20:16:12.445Z,13.01
2023-04-23T20:18:40.302Z,12.98
2023-04-23T20:21:09.352Z,12.94
2023-04-23T20:23:37.273Z,12.91
2023-04-23T20:26:07.519Z,12.87
2023-04-23T20:28:36.012Z,12.85
2023-04-23T20:31:03.832Z,12.81
2023-04-23T20:33:31.556Z,12.78
2023-04-23T20:36:01.671Z,12.76
2023-04-23T20:38:33.370Z,12.74
2023-04-23T20:41:02.639Z,12.71
2023-04-23T20:43:34.377Z,12.69
2023-04-23T20:46:03.099Z,12.68
2023-04-23T20:48:31.132Z,12.65
2023-04-23T20:50:59.597Z,12.63
2023-04-23T20:53:28.719Z,12.60
2023-04-23T20:55:57.197Z,12.58
2023-04-23T20:58:25.632Z,12.54
2023-04-23T21:00:54.248Z,12.52
2023-04-23T21:03:22.578Z,12.50
2023-04-23T21:05:50.974Z,12.48
2023-04-23T21:08:19.288Z,12.48
2023-04-23T21:10:47.594Z,12.46
2023-04-23T21:13:15.408Z,12.46
2023-04-23T21:15:44.834Z,12.46
2023-04-23T21:18:12.762Z,12.46
2023-04-23T21:20:41.029Z,12.46
2023-04-23T21:23:11.142Z,12.46
2023-04-23T21:25:39.868Z,12.46
2023-04-23T21:28:07.696Z,12.44
2023-04-23T21:30:52.127Z,12.42
2023-04-23T21:33:22.606Z,12.42
2023-04-23T21:35:51.648Z,12.42
2023-04-23T21:38:20.596Z,12.42
2023-04-23T21:40:48.624Z,12.42
2023-04-23T21:43:17.084Z,12.42
2023-04-23T21:45:45.528Z,12.40
2023-04-23T21:48:13.552Z,12.37
2023-04-23T21:50:41.418Z,12.35
2023-04-23T21:53:09.951Z,12.34
2023-04-23T21:55:38.164Z,12.33
2023-04-23T21:58:17.389Z,12.33
2023-04-23T22:00:46.164Z,12.32
2023-04-23T22:03:17.325Z,12.33
2023-04-23T22:05:52.528Z,12.35
2023-04-23T22:08:20.403Z,12.35
2023-04-23T22:10:48.216Z,12.34
2023-04-23T22:13:16.461Z,12.34
2023-04-23T22:15:44.461Z,12.34
2023-04-23T22:18:12.324Z,12.32
2023-04-23T22:20:40.705Z,12.29
2023-04-23T22:23:08.546Z,12.28
2023-04-23T22:25:36.320Z,12.24
2023-04-23T22:28:04.100Z,12.21
2023-04-23T22:30:31.872Z,12.18
2023-04-23T22:32:59.788Z,12.16
2023-04-23T22:35:27.987Z,12.12
2023-04-23T22:37:56.521Z,12.10
2023-04-23T22:40:24.557Z,12.09
2023-04-23T22:42:52.384Z,12.08
2023-04-23T22:45:20.182Z,12.06
2023-04-23T22:47:48.448Z,12.03
2023-04-23T22:50:16.446Z,12.00
2023-04-23T22:52:44.850Z,11.98
2023-04-23T22:55:13.024Z,11.96
2023-04-23T22:57:41.026Z,11.93
2023-04-23T23:00:11.398Z,11.91
2023-04-23T23:02:39.299Z,11.89
2023-04-23T23:05:07.534Z,11.87
2023-04-23T23:07:35.297Z,11.84
2023-04-23T23:10:03.906Z,11.82
2023-04-23T23:12:31.791Z,11.78
2023-04-23T23:15:00.006Z,11.75
2023-04-23T23:17:27.872Z,11.73
2023-04-23T23:19:55.739Z,11.70
2023-04-23T23:22:23.569Z,11.69
2023-04-23T23:24:51.372Z,11.67
2023-04-23T23:27:19.213Z,11.65
2023-04-23T23:29:47.512Z,11.62
2023-04-23T23:32:15.340Z,11.61
2023-04-23T23:34:43.252Z,11.61
2023-04-23T23:37:11.363Z,11.60
2023-04-23T23:39:39.189Z,11.61
2023-04-23T23:42:06.966Z,11.60
2023-04-23T23:44:36.383Z,11.60
2023-04-23T23:47:04.310Z,11.59
2023-04-23T23:49:32.522Z,11.57
2023-04-23T23:52:00.285Z,11.56
2023-04-23T23:54:28.043Z,11.55
2023-04-23T23:56:57.448Z,11.55
2023-04-23T23:59:26.019Z,11.55
